Time;durP1;ratioP1;P1;durP2;ratioP2;P2;SDS_P1;SDS_P2;PMS_P1;PMS_P2;Temp;Humidity;BMP_temperature;BMP_pressure;BME280_temperature;BME280_humidity;BME280_pressure;Samples;Min_cycle;Max_cycle;Signal;HPM_P1;HPM_P2
2022/11/16 00:00:13;;;;;;;7.70;4.07;;;11.20;98.00;;;;;;5055855;28;20461;-66
2022/11/16 00:02:40;;;;;;;6.90;3.40;;;11.20;98.00;;;;;;5072614;28;20491;-67
2022/11/16 00:05:08;;;;;;;8.23;2.73;;;11.10;98.00;;;;;;5065432;28;20472;-66
2022/11/16 00:07:37;;;;;;;4.43;2.87;;;11.10;98.00;;;;;;5037617;28;20459;-67
2022/11/16 00:10:04;;;;;;;6.90;3.07;;;11.20;98.00;;;;;;5055889;28;20499;-67
2022/11/16 00:12:31;;;;;;;9.37;3.50;;;11.10;98.00;;;;;;5057086;28;20468;-66
2022/11/16 00:14:58;;;;;;;5.07;2.57;;;11.10;98.00;;;;;;5048669;28;20459;-66
2022/11/16 00:17:26;;;;;;;3.77;2.33;;;11.10;98.00;;;;;;5052675;28;20458;-66
2022/11/16 00:19:53;;;;;;;4.17;2.70;;;11.10;98.00;;;;;;5043027;28;20463;-66
2022/11/16 00:22:20;;;;;;;4.20;2.57;;;11.10;98.00;;;;;;5060015;28;20484;-66
2022/11/16 00:24:48;;;;;;;4.50;2.73;;;11.10;98.00;;;;;;5043614;28;20460;-66
2022/11/16 00:27:15;;;;;;;3.10;2.37;;;11.10;98.00;;;;;;5069730;28;20463;-66
2022/11/16 00:29:42;;;;;;;4.77;2.20;;;11.10;98.00;;;;;;5052756;28;20877;-66
2022/11/16 00:32:09;;;;;;;4.60;2.20;;;11.10;98.00;;;;;;5061013;28;20469;-66
2022/11/16 00:34:40;;;;;;;3.30;2.23;;;11.00;98.00;;;;;;5059496;28;20511;-66
2022/11/16 00:37:07;;;;;;;4.60;2.20;;;11.00;98.00;;;;;;5043054;28;20453;-66
2022/11/16 00:39:34;;;;;;;2.70;2.20;;;11.00;98.00;;;;;;5051297;28;20465;-66
2022/11/16 00:42:02;;;;;;;1.90;1.63;;;11.00;98.00;;;;;;5069726;28;20991;-66
2022/11/16 00:44:30;;;;;;;3.80;2.33;;;11.00;98.00;;;;;;5051670;28;20461;-66
2022/11/16 00:46:57;;;;;;;4.47;2.67;;;11.00;98.00;;;;;;5033331;28;20516;-66
2022/11/16 00:49:24;;;;;;;3.27;2.43;;;11.00;98.00;;;;;;5031668;28;20454;-66
2022/11/16 00:51:51;;;;;;;3.67;2.30;;;10.90;98.00;;;;;;5066935;28;20664;-66
2022/11/16 00:54:23;;;;;;;3.30;1.93;;;11.00;98.00;;;;;;5053026;28;20460;-66
2022/11/16 00:56:50;;;;;;;5.10;2.33;;;11.10;98.00;;;;;;5059756;28;20493;-66
2022/11/16 00:59:20;;;;;;;5.43;2.60;;;11.10;98.00;;;;;;5052989;28;20849;-66
2022/11/16 01:01:47;;;;;;;8.53;2.40;;;11.00;98.00;;;;;;5050672;28;20483;-66
2022/11/16 01:04:15;;;;;;;3.77;2.23;;;11.10;98.00;;;;;;5043801;28;20465;-66
2022/11/16 01:06:42;;;;;;;2.50;1.83;;;11.10;98.00;;;;;;5069382;28;20452;-66
2022/11/16 01:09:09;;;;;;;4.30;2.10;;;11.20;98.00;;;;;;5070380;28;20455;-66
2022/11/16 01:14:23;;;;;;;4.27;2.70;;;11.00;98.00;;;;;;5045879;28;20434;-66
2022/11/16 01:16:50;;;;;;;5.43;2.17;;;11.00;98.00;;;;;;5060185;28;20456;-67
2022/11/16 01:19:18;;;;;;;4.13;2.10;;;11.00;98.00;;;;;;5070475;28;20805;-67
2022/11/16 01:21:45;;;;;;;3.10;2.23;;;10.90;98.00;;;;;;5052048;28;20762;-68
2022/11/16 01:24:12;;;;;;;4.57;2.53;;;10.90;98.00;;;;;;5061155;28;20455;-66
2022/11/16 01:26:39;;;;;;;3.93;2.07;;;11.00;98.00;;;;;;5068401;28;20471;-67
2022/11/16 01:29:06;;;;;;;3.90;2.20;;;11.00;98.00;;;;;;5060357;28;20458;-66
2022/11/16 01:31:34;;;;;;;3.33;1.80;;;11.00;98.00;;;;;;5051422;28;20877;-66
2022/11/16 01:34:04;;;;;;;3.60;2.50;;;11.10;98.00;;;;;;5058927;28;20458;-66
2022/11/16 01:36:32;;;;;;;4.37;2.10;;;11.20;98.00;;;;;;5058813;28;20468;-66
2022/11/16 01:38:59;;;;;;;3.30;2.13;;;11.20;98.00;;;;;;5052566;28;20899;-66
2022/11/16 01:41:27;;;;;;;5.70;2.10;;;11.20;98.00;;;;;;5043385;28;20458;-66
2022/11/16 01:43:57;;;;;;;4.77;2.20;;;11.20;98.00;;;;;;5059863;28;20483;-66
2022/11/16 01:46:25;;;;;;;3.70;2.30;;;11.10;98.00;;;;;;5050665;28;20460;-67
2022/11/16 01:48:59;;;;;;;5.80;2.50;;;11.20;98.00;;;;;;5059722;28;20456;-67
2022/11/16 01:51:27;;;;;;;4.80;2.40;;;11.10;98.00;;;;;;5065427;28;20996;-67
2022/11/16 01:53:54;;;;;;;3.80;2.13;;;11.30;98.00;;;;;;5069027;28;20460;-67
2022/11/16 01:56:22;;;;;;;5.67;4.17;;;11.40;98.00;;;;;;5059644;28;20455;-66
2022/11/16 01:58:50;;;;;;;4.57;2.63;;;11.50;98.00;;;;;;5060291;28;20468;-67
2022/11/16 02:01:17;;;;;;;4.00;2.40;;;11.40;98.00;;;;;;5060336;28;20491;-67
2022/11/16 02:03:44;;;;;;;4.80;2.60;;;11.20;98.00;;;;;;5051105;28;20494;-67
2022/11/16 02:06:29;;;;;;;5.20;2.40;;;11.10;98.00;;;;;;5050311;28;20456;-66
2022/11/16 02:12:16;;;;;;;3.43;2.03;;;11.00;98.00;;;;;;5056444;28;20591;-66
2022/11/16 02:14:56;;;;;;;2.83;2.30;;;10.90;98.00;;;;;;5058227;28;20462;-66
2022/11/16 02:17:32;;;;;;;2.50;1.93;;;10.80;98.00;;;;;;5059725;28;20671;-67
2022/11/16 02:20:41;;;;;;;4.13;2.33;;;10.80;98.00;;;;;;5059971;28;20458;-67
2022/11/16 02:23:45;;;;;;;3.00;1.90;;;10.90;98.00;;;;;;5013327;28;20569;-66
2022/11/16 02:26:48;;;;;;;3.90;2.37;;;10.90;98.00;;;;;;5051424;28;20868;-67
2022/11/16 02:29:22;;;;;;;2.50;1.90;;;11.00;98.00;;;;;;5058320;28;20475;-66
2022/11/16 02:31:56;;;;;;;2.87;2.07;;;11.00;98.00;;;;;;5059964;28;20466;-66
2022/11/16 02:34:29;;;;;;;4.80;1.80;;;10.90;98.00;;;;;;5048192;28;20558;-66
2022/11/16 02:36:58;;;;;;;2.97;2.00;;;10.80;98.00;;;;;;5059127;28;20475;-66
2022/11/16 02:39:28;;;;;;;2.90;1.90;;;10.80;98.00;;;;;;5048913;28;20929;-66
2022/11/16 02:41:58;;;;;;;4.13;2.40;;;10.70;98.00;;;;;;5041591;28;20786;-66
2022/11/16 02:44:32;;;;;;;5.77;2.50;;;10.80;98.00;;;;;;5032537;28;20472;-66
2022/11/16 02:47:03;;;;;;;3.93;2.50;;;10.80;98.00;;;;;;5058934;28;20475;-67
2022/11/16 02:49:33;;;;;;;5.23;2.53;;;11.00;98.00;;;;;;5057354;28;20485;-66
2022/11/16 02:52:01;;;;;;;6.80;2.20;;;11.10;98.00;;;;;;5058884;28;20553;-66
2022/11/16 02:54:29;;;;;;;2.40;2.07;;;11.10;98.00;;;;;;5050087;28;20468;-67
2022/11/16 02:57:16;;;;;;;2.83;2.20;;;11.20;98.00;;;;;;5040510;28;20448;-67
2022/11/16 02:59:48;;;;;;;6.20;3.10;;;11.10;98.00;;;;;;5056219;28;20953;-66
2022/11/16 03:02:24;;;;;;;4.87;2.60;;;10.80;98.00;;;;;;5062767;28;20494;-66
2022/11/16 03:04:55;;;;;;;3.77;2.20;;;10.80;98.00;;;;;;5065176;28;20902;-66
2022/11/16 03:07:28;;;;;;;4.40;2.63;;;10.70;98.00;;;;;;5062922;28;20862;-66
2022/11/16 03:09:56;;;;;;;3.80;2.20;;;10.80;98.00;;;;;;5059647;28;20464;-66
2022/11/16 03:12:27;;;;;;;5.27;2.87;;;10.80;98.00;;;;;;5032891;28;20464;-66
2022/11/16 03:15:02;;;;;;;3.30;2.23;;;10.70;98.00;;;;;;5036204;28;20819;-66
2022/11/16 03:17:31;;;;;;;3.73;2.60;;;10.60;98.00;;;;;;5067129;28;20455;-66
2022/11/16 03:20:05;;;;;;;3.80;2.17;;;10.70;98.00;;;;;;5058223;28;20483;-66
2022/11/16 03:22:38;;;;;;;2.80;2.00;;;10.90;98.00;;;;;;5066991;28;20485;-66
2022/11/16 03:25:07;;;;;;;3.20;2.53;;;10.80;98.00;;;;;;5058736;28;20464;-66
2022/11/16 03:27:39;;;;;;;7.50;2.30;;;10.70;98.00;;;;;;5067062;28;21006;-66
2022/11/16 03:30:12;;;;;;;4.73;2.50;;;10.80;98.00;;;;;;5058958;28;20468;-66
2022/11/16 03:32:45;;;;;;;3.70;2.50;;;10.70;98.00;;;;;;5049926;28;20475;-67
2022/11/16 03:35:17;;;;;;;3.53;2.43;;;10.60;98.00;;;;;;5068038;28;20460;-66
2022/11/16 03:37:49;;;;;;;4.60;2.37;;;10.70;98.00;;;;;;5067608;28;20473;-67
2022/11/16 03:40:18;;;;;;;7.13;2.43;;;10.70;98.00;;;;;;5050142;28;20534;-66
2022/11/16 03:42:48;;;;;;;2.10;1.83;;;10.60;98.00;;;;;;5048292;28;20485;-66
2022/11/16 03:45:22;;;;;;;4.30;2.30;;;10.60;98.00;;;;;;5058286;28;20464;-67
2022/11/16 03:47:49;;;;;;;2.33;1.90;;;10.60;98.00;;;;;;5047987;28;20471;-66
2022/11/16 03:50:17;;;;;;;4.40;2.53;;;10.60;98.00;;;;;;5051087;28;20464;-66
2022/11/16 03:52:44;;;;;;;4.20;2.87;;;10.60;98.00;;;;;;5035368;28;20966;-66
2022/11/16 03:55:11;;;;;;;3.60;2.00;;;10.60;98.00;;;;;;5052690;28;20454;-67
2022/11/16 03:57:38;;;;;;;2.97;2.23;;;10.70;98.00;;;;;;5062078;28;20569;-66
2022/11/16 04:00:07;;;;;;;3.67;2.13;;;10.90;98.00;;;;;;5053640;28;20602;-66
2022/11/16 04:02:35;;;;;;;5.73;3.13;;;10.80;98.00;;;;;;5061086;28;20876;-66
2022/11/16 04:24:28;;;;;;;8.20;3.03;;;10.70;98.00;;;;;;5053252;28;20992;-66
2022/11/16 04:29:43;;;;;;;2.57;2.27;;;10.60;98.00;;;;;;5043675;28;20956;-67
2022/11/16 04:37:53;;;;;;;5.80;3.03;;;10.70;98.00;;;;;;5061756;28;20450;-66
2022/11/16 04:40:23;;;;;;;4.23;2.13;;;10.70;98.00;;;;;;5051933;28;20506;-66
2022/11/16 04:42:55;;;;;;;5.50;2.67;;;10.70;98.00;;;;;;5067973;28;20487;-66
2022/11/16 04:48:08;;;;;;;4.37;2.70;;;10.60;98.00;;;;;;5051241;28;20447;-66
2022/11/16 04:50:37;;;;;;;4.90;2.80;;;10.50;98.00;;;;;;5049289;28;20458;-66
2022/11/16 04:53:05;;;;;;;3.63;2.37;;;10.60;98.00;;;;;;5051182;28;20465;-66
2022/11/16 04:55:32;;;;;;;4.53;2.63;;;10.60;98.00;;;;;;5059809;28;20511;-67
2022/11/16 04:58:00;;;;;;;4.67;2.77;;;10.60;98.00;;;;;;5060176;28;20859;-67
2022/11/16 05:00:27;;;;;;;4.83;2.10;;;10.50;98.00;;;;;;5061328;28;20878;-67
2022/11/16 05:02:54;;;;;;;2.70;1.97;;;10.50;98.00;;;;;;5050189;28;20493;-66
2022/11/16 05:05:21;;;;;;;4.27;2.43;;;10.60;98.00;;;;;;5051988;28;20505;-66
2022/11/16 05:07:50;;;;;;;6.03;2.20;;;10.60;98.00;;;;;;5069395;28;20462;-67
2022/11/16 05:10:17;;;;;;;5.40;2.53;;;10.90;98.00;;;;;;5061353;28;20471;-67
2022/11/16 05:12:44;;;;;;;3.00;2.27;;;11.10;98.00;;;;;;5043834;28;20461;-66
2022/11/16 05:15:11;;;;;;;5.30;3.00;;;10.90;98.00;;;;;;5069751;28;20527;-66
2022/11/16 05:17:38;;;;;;;5.90;2.60;;;10.90;98.00;;;;;;5060697;28;20465;-66
2022/11/16 05:22:56;;;;;;;3.43;2.40;;;10.70;98.00;;;;;;5051548;28;20479;-66
2022/11/16 05:25:33;;;;;;;3.57;2.60;;;10.60;98.00;;;;;;5059644;28;21103;-66
2022/11/16 05:28:00;;;;;;;3.53;2.43;;;10.60;98.00;;;;;;5066843;28;20466;-66
2022/11/16 05:30:32;;;;;;;2.40;1.83;;;10.50;98.00;;;;;;5052902;28;20470;-66
2022/11/16 05:32:59;;;;;;;3.23;2.30;;;10.50;98.00;;;;;;5060797;28;20461;-66
2022/11/16 05:35:26;;;;;;;3.10;2.30;;;10.40;98.00;;;;;;5057251;28;20985;-66
2022/11/16 05:37:55;;;;;;;4.93;2.57;;;10.60;98.00;;;;;;5043314;28;20461;-66
2022/11/16 05:40:23;;;;;;;4.37;2.40;;;10.60;98.00;;;;;;5049947;28;20500;-66
2022/11/16 05:42:51;;;;;;;6.47;2.63;;;10.70;98.00;;;;;;5050933;28;20494;-66
2022/11/16 05:45:19;;;;;;;6.63;2.37;;;10.80;98.00;;;;;;5059613;28;20457;-66
2022/11/16 05:47:46;;;;;;;4.77;2.30;;;10.80;98.00;;;;;;5059046;28;20466;-66
2022/11/16 05:50:13;;;;;;;3.27;2.23;;;10.70;98.00;;;;;;5056755;28;20579;-66
2022/11/16 05:52:40;;;;;;;3.60;2.10;;;10.70;98.00;;;;;;5069593;28;21029;-66
2022/11/16 05:55:09;;;;;;;3.00;2.30;;;10.60;98.00;;;;;;5067703;28;20468;-66
2022/11/16 05:57:36;;;;;;;4.03;2.17;;;10.60;98.00;;;;;;5055990;28;20823;-66
2022/11/16 06:00:04;;;;;;;3.23;2.20;;;10.60;98.00;;;;;;5052207;28;20467;-66
2022/11/16 06:02:32;;;;;;;6.17;2.50;;;10.60;98.00;;;;;;5069105;28;20833;-66
2022/11/16 06:04:59;;;;;;;5.07;2.67;;;10.60;98.00;;;;;;5067302;28;20516;-66
2022/11/16 06:07:27;;;;;;;5.10;3.33;;;10.60;98.00;;;;;;5059627;28;20475;-66
2022/11/16 06:09:54;;;;;;;3.00;2.20;;;10.70;98.00;;;;;;5050390;28;20562;-66
2022/11/16 06:12:23;;;;;;;3.27;2.10;;;10.70;98.00;;;;;;5068971;28;20468;-66
2022/11/16 06:14:50;;;;;;;2.77;2.30;;;10.70;98.00;;;;;;5067209;28;20466;-66
2022/11/16 06:17:17;;;;;;;4.43;2.90;;;10.70;98.00;;;;;;5056894;28;20945;-66
2022/11/16 06:19:44;;;;;;;3.53;2.40;;;10.60;98.00;;;;;;5061419;28;20457;-66
2022/11/16 06:22:11;;;;;;;4.50;2.50;;;10.70;98.00;;;;;;5067275;28;20459;-66
2022/11/16 06:24:38;;;;;;;3.73;2.27;;;10.70;98.00;;;;;;5068163;28;20550;-66
2022/11/16 06:27:05;;;;;;;3.43;2.30;;;10.70;98.00;;;;;;5042053;28;20936;-66
2022/11/16 06:29:33;;;;;;;5.63;2.60;;;10.60;98.00;;;;;;5057956;28;20457;-66
2022/11/16 06:32:00;;;;;;;7.63;2.93;;;10.60;98.00;;;;;;5059274;28;20452;-66
2022/11/16 06:34:27;;;;;;;4.57;2.57;;;10.70;98.00;;;;;;5058715;28;20514;-66
2022/11/16 06:36:54;;;;;;;4.07;2.40;;;10.80;98.00;;;;;;5068735;28;20521;-67
2022/11/16 06:39:22;;;;;;;4.53;3.00;;;10.90;98.00;;;;;;5058356;28;20470;-66
2022/11/16 06:41:49;;;;;;;5.20;2.90;;;11.10;98.00;;;;;;5049530;28;20451;-67
2022/11/16 06:44:16;;;;;;;6.20;3.27;;;11.00;98.00;;;;;;5051150;28;20492;-66
2022/11/16 06:46:44;;;;;;;5.10;3.17;;;10.90;98.00;;;;;;5051309;28;20953;-66
2022/11/16 06:49:11;;;;;;;6.57;3.67;;;10.90;98.00;;;;;;5051454;28;20467;-66
2022/11/16 06:51:38;;;;;;;8.73;3.00;;;10.90;98.00;;;;;;5050686;28;20461;-66
2022/11/16 06:54:06;;;;;;;7.33;3.03;;;11.00;98.00;;;;;;5051156;28;20463;-66
2022/11/16 06:56:34;;;;;;;5.30;3.00;;;11.00;98.00;;;;;;5049165;28;20457;-61
2022/11/16 06:59:01;;;;;;;4.87;3.07;;;10.90;98.00;;;;;;5051495;28;20467;-61
2022/11/16 07:01:28;;;;;;;3.77;2.60;;;10.80;98.00;;;;;;5051020;28;20458;-61
2022/11/16 07:03:58;;;;;;;3.37;2.13;;;10.80;98.00;;;;;;5033394;28;20491;-61
2022/11/16 07:06:25;;;;;;;2.40;2.03;;;10.80;98.00;;;;;;5050765;28;20466;-61
2022/11/16 07:08:52;;;;;;;4.80;2.60;;;10.70;98.00;;;;;;5050915;28;20856;-61
2022/11/16 07:11:20;;;;;;;6.17;3.23;;;10.60;98.00;;;;;;5050909;28;20460;-61
2022/11/16 07:13:47;;;;;;;7.80;3.13;;;10.60;98.00;;;;;;5050770;28;20900;-61
2022/11/16 07:16:14;;;;;;;6.37;3.00;;;10.70;98.00;;;;;;5051062;28;20888;-61
2022/11/16 07:18:42;;;;;;;6.77;2.70;;;10.70;98.00;;;;;;5050860;28;20453;-61
2022/11/16 07:21:13;;;;;;;4.43;2.40;;;10.70;98.00;;;;;;5050785;28;20467;-61
2022/11/16 07:23:41;;;;;;;3.60;2.40;;;10.70;98.00;;;;;;5050983;28;20505;-61
2022/11/16 07:26:09;;;;;;;5.43;2.80;;;10.70;98.00;;;;;;5052250;28;20460;-61
2022/11/16 07:28:37;;;;;;;7.50;3.43;;;10.70;98.00;;;;;;5054908;28;20463;-61
2022/11/16 07:31:05;;;;;;;5.10;2.97;;;10.80;98.00;;;;;;5054916;28;20819;-61
2022/11/16 07:33:34;;;;;;;8.83;3.03;;;10.80;98.00;;;;;;5055114;28;20922;-61
2022/11/16 07:36:02;;;;;;;4.07;2.70;;;10.80;98.00;;;;;;5055099;28;20455;-61
2022/11/16 07:38:31;;;;;;;5.00;2.80;;;10.90;98.00;;;;;;5054622;28;20470;-61
2022/11/16 07:41:00;;;;;;;7.10;4.07;;;10.80;98.00;;;;;;5054926;28;20863;-61
2022/11/16 07:43:28;;;;;;;6.00;2.80;;;10.80;98.00;;;;;;5054563;28;20477;-61
2022/11/16 07:45:57;;;;;;;8.83;4.43;;;10.80;98.00;;;;;;5054881;28;20949;-61
2022/11/16 07:48:24;;;;;;;3.73;2.17;;;10.80;98.00;;;;;;5054589;28;20449;-61
2022/11/16 07:50:51;;;;;;;2.90;2.20;;;10.90;98.00;;;;;;5054512;28;20468;-61
2022/11/16 07:53:18;;;;;;;4.90;2.37;;;10.90;98.00;;;;;;5054206;28;20461;-61
2022/11/16 07:55:53;;;;;;;4.20;2.10;;;11.00;98.00;;;;;;5054307;28;20456;-61
2022/11/16 07:58:20;;;;;;;3.83;2.10;;;11.10;98.00;;;;;;5054183;28;20567;-61
2022/11/16 08:00:48;;;;;;;1.57;1.53;;;11.10;98.00;;;;;;5054331;28;20878;-61
2022/11/16 08:03:15;;;;;;;1.90;1.43;;;11.10;98.00;;;;;;5054142;28;20463;-61
2022/11/16 08:05:43;;;;;;;3.50;1.87;;;11.10;98.00;;;;;;5054240;28;20456;-61
2022/11/16 08:08:10;;;;;;;2.20;1.70;;;11.20;98.00;;;;;;5054115;28;20974;-61
2022/11/16 08:10:38;;;;;;;13.80;1.43;;;11.20;98.00;;;;;;5053876;28;20464;-61
2022/11/16 08:13:06;;;;;;;1.93;1.33;;;11.20;98.00;;;;;;5054226;28;20946;-61
2022/11/16 08:15:33;;;;;;;2.07;1.70;;;11.20;98.00;;;;;;5052887;28;20457;-61
2022/11/16 08:18:00;;;;;;;1.50;1.40;;;11.30;98.00;;;;;;5061560;28;20977;-62
2022/11/16 08:20:27;;;;;;;1.60;1.40;;;11.40;98.00;;;;;;5061223;28;20454;-61
2022/11/16 08:23:00;;;;;;;1.70;1.40;;;11.40;98.00;;;;;;5069814;28;20461;-62
2022/11/16 08:25:27;;;;;;;1.50;1.30;;;11.50;98.00;;;;;;5052477;28;20512;-61
2022/11/16 08:27:54;;;;;;;1.50;1.40;;;11.60;98.00;;;;;;5060835;28;20516;-61
2022/11/16 08:30:22;;;;;;;1.40;1.30;;;11.70;98.00;;;;;;5061059;28;21045;-61
2022/11/16 08:32:49;;;;;;;1.20;1.20;;;11.70;98.00;;;;;;5061673;28;20697;-61
2022/11/16 08:35:16;;;;;;;2.23;1.30;;;11.70;98.00;;;;;;5068643;28;20456;-62
2022/11/16 08:37:43;;;;;;;2.33;1.40;;;11.80;98.00;;;;;;5033291;28;20461;-62
2022/11/16 08:40:13;;;;;;;1.67;1.47;;;12.00;98.00;;;;;;5060860;28;20469;-62
2022/11/16 08:42:40;;;;;;;3.10;1.67;;;12.10;98.00;;;;;;5060053;28;20456;-62
2022/11/16 08:45:08;;;;;;;5.07;2.70;;;12.10;98.00;;;;;;5060857;28;20888;-62
2022/11/16 08:47:36;;;;;;;3.33;1.80;;;12.20;98.00;;;;;;5060220;28;20453;-63
2022/11/16 08:50:04;;;;;;;4.40;1.80;;;12.50;98.00;;;;;;5057677;28;20457;-66
2022/11/16 08:52:31;;;;;;;1.77;1.50;;;13.10;98.00;;;;;;5060795;28;20854;-62
2022/11/16 08:54:58;;;;;;;1.80;1.40;;;13.70;98.00;;;;;;5032983;28;20464;-62
2022/11/16 08:57:25;;;;;;;3.30;1.40;;;13.70;98.00;;;;;;5051104;28;20455;-63
2022/11/16 08:59:52;;;;;;;1.83;1.30;;;13.60;98.00;;;;;;5052498;28;20456;-62
2022/11/16 09:02:24;;;;;;;1.40;1.10;;;13.40;98.00;;;;;;5051866;28;20466;-62
2022/11/16 09:04:52;;;;;;;4.53;1.47;;;13.30;98.00;;;;;;5058187;28;20490;-62
2022/11/16 09:07:20;;;;;;;1.40;1.27;;;13.20;98.00;;;;;;5051916;28;20842;-62
2022/11/16 09:09:47;;;;;;;1.83;1.20;;;13.20;98.00;;;;;;5060219;28;20811;-62
2022/11/16 09:12:14;;;;;;;1.97;1.47;;;13.10;98.00;;;;;;5052177;28;20468;-62
2022/11/16 09:14:41;;;;;;;2.30;1.30;;;13.00;98.00;;;;;;5068602;28;20552;-63
2022/11/16 09:17:08;;;;;;;1.60;1.30;;;13.00;98.00;;;;;;5050627;28;20855;-62
2022/11/16 09:19:35;;;;;;;3.00;1.60;;;13.00;98.00;;;;;;5060498;28;21022;-62
2022/11/16 09:22:03;;;;;;;1.60;1.30;;;13.00;98.00;;;;;;5061113;28;20455;-62
2022/11/16 09:24:31;;;;;;;1.40;1.20;;;13.00;98.00;;;;;;5070462;28;20492;-62
2022/11/16 09:27:00;;;;;;;1.60;1.10;;;13.00;98.00;;;;;;5070116;28;20506;-62
2022/11/16 09:29:27;;;;;;;1.47;1.20;;;13.00;98.00;;;;;;5051508;28;20461;-62
2022/11/16 09:31:54;;;;;;;1.70;1.20;;;13.10;98.00;;;;;;5069327;28;20987;-62
2022/11/16 09:34:22;;;;;;;2.00;1.30;;;13.20;98.00;;;;;;5062561;28;20507;-62
2022/11/16 09:36:49;;;;;;;1.30;1.10;;;13.10;98.00;;;;;;5032863;28;20471;-61
2022/11/16 09:39:20;;;;;;;1.30;1.10;;;13.10;98.00;;;;;;5050253;28;20472;-62
2022/11/16 09:42:00;;;;;;;1.77;1.10;;;13.20;98.00;;;;;;5049566;28;20966;-62
2022/11/16 09:44:51;;;;;;;1.40;1.20;;;13.20;98.00;;;;;;5049562;28;20482;-62
2022/11/16 09:47:20;;;;;;;1.30;1.20;;;13.10;98.00;;;;;;5023285;28;20486;-61
2022/11/16 09:49:52;;;;;;;1.40;1.13;;;13.20;98.00;;;;;;5043220;28;20469;-62
2022/11/16 09:52:26;;;;;;;1.50;1.30;;;13.20;98.00;;;;;;5043417;28;20555;-61
2022/11/16 09:54:56;;;;;;;1.47;1.20;;;13.30;98.00;;;;;;5035958;28;20503;-62
2022/11/16 09:57:29;;;;;;;3.20;1.30;;;13.30;98.00;;;;;;5048208;28;20492;-61
2022/11/16 10:00:00;;;;;;;1.40;1.20;;;13.30;98.00;;;;;;5048382;28;20466;-61
2022/11/16 10:02:32;;;;;;;1.53;1.10;;;13.40;98.00;;;;;;5039740;28;20978;-61
2022/11/16 10:05:07;;;;;;;1.30;1.10;;;13.60;98.00;;;;;;5023110;28;20491;-61
2022/11/16 10:07:42;;;;;;;1.30;1.20;;;13.60;98.00;;;;;;5038143;28;20465;-61
2022/11/16 10:10:12;;;;;;;1.53;1.30;;;13.50;98.00;;;;;;5048830;28;20460;-62
2022/11/16 10:12:45;;;;;;;1.87;1.20;;;13.40;98.00;;;;;;5038938;28;20460;-61
2022/11/16 10:15:38;;;;;;;1.30;1.17;;;13.40;98.00;;;;;;5031958;28;20559;-62
2022/11/16 10:18:19;;;;;;;1.93;1.30;;;13.50;98.00;;;;;;5035190;28;20463;-61
2022/11/16 10:21:13;;;;;;;1.60;1.20;;;13.50;98.00;;;;;;5039918;28;20481;-62
2022/11/16 10:23:54;;;;;;;1.57;1.20;;;13.60;98.00;;;;;;5021468;28;20462;-62
2022/11/16 10:26:31;;;;;;;1.57;1.20;;;13.60;98.00;;;;;;5004593;28;20460;-62
2022/11/16 10:29:10;;;;;;;1.30;1.20;;;13.60;98.00;;;;;;5040184;28;20525;-62
2022/11/16 10:31:51;;;;;;;1.70;1.20;;;13.40;98.00;;;;;;4997894;28;20546;-61
2022/11/16 10:34:22;;;;;;;2.60;1.40;;;13.50;98.00;;;;;;5034861;28;20460;-61
2022/11/16 10:36:54;;;;;;;1.73;1.23;;;13.40;98.00;;;;;;5043444;28;20486;-62
2022/11/16 10:39:21;;;;;;;1.27;1.10;;;13.50;98.00;;;;;;5034815;28;20478;-61
2022/11/16 10:42:02;;;;;;;1.50;1.40;;;13.40;98.00;;;;;;5038035;28;20466;-62
2022/11/16 10:44:35;;;;;;;5.43;1.47;;;13.50;98.00;;;;;;5048289;28;20486;-61
2022/11/16 10:47:04;;;;;;;2.53;1.40;;;13.60;98.00;;;;;;5037821;28;20464;-61
2022/11/16 10:49:38;;;;;;;1.30;1.13;;;13.70;98.00;;;;;;5037795;28;20463;-62
2022/11/16 10:52:06;;;;;;;2.03;1.33;;;13.60;98.00;;;;;;5039499;28;20485;-64
2022/11/16 10:54:33;;;;;;;1.47;1.17;;;13.50;98.00;;;;;;5030309;28;20457;-63
2022/11/16 10:57:05;;;;;;;1.37;1.27;;;13.50;98.00;;;;;;5048336;28;20466;-61
2022/11/16 10:59:40;;;;;;;1.40;1.20;;;13.40;98.00;;;;;;5037185;28;20455;-62
2022/11/16 11:02:27;;;;;;;1.43;1.10;;;13.40;98.00;;;;;;5046772;28;20473;-63
2022/11/16 11:05:03;;;;;;;2.63;1.30;;;13.40;98.00;;;;;;5047971;28;20596;-62
2022/11/16 11:07:32;;;;;;;4.03;1.47;;;13.40;98.00;;;;;;5043762;28;20457;-62
2022/11/16 11:10:00;;;;;;;1.60;1.30;;;13.30;98.00;;;;;;5033763;28;20953;-61
2022/11/16 11:12:38;;;;;;;1.57;1.53;;;13.40;98.00;;;;;;5038511;28;20522;-62
2022/11/16 11:15:25;;;;;;;1.87;1.60;;;13.40;98.00;;;;;;5026926;28;20463;-62
2022/11/16 11:18:10;;;;;;;1.83;1.60;;;13.30;98.00;;;;;;5038047;28;20508;-62
2022/11/16 11:20:40;;;;;;;2.57;1.40;;;13.40;98.00;;;;;;5038382;28;20452;-62
2022/11/16 11:23:13;;;;;;;2.90;1.40;;;13.40;98.00;;;;;;5031080;28;20463;-62
2022/11/16 11:25:48;;;;;;;2.47;1.33;;;13.30;98.00;;;;;;5038702;28;20502;-62
2022/11/16 11:28:21;;;;;;;1.90;1.50;;;13.30;98.00;;;;;;5038724;28;21243;-62
2022/11/16 11:30:59;;;;;;;1.43;1.33;;;13.30;98.00;;;;;;5040971;28;20467;-62
2022/11/16 11:33:29;;;;;;;1.93;1.57;;;13.30;98.00;;;;;;5047586;28;20506;-61
2022/11/16 11:36:04;;;;;;;2.33;1.50;;;13.30;98.00;;;;;;5048462;28;20501;-61
2022/11/16 11:38:32;;;;;;;1.50;1.40;;;13.30;98.00;;;;;;5038569;28;20848;-61
2022/11/16 11:41:00;;;;;;;1.83;1.40;;;13.30;98.00;;;;;;5047768;28;20459;-61
2022/11/16 11:43:29;;;;;;;1.80;1.33;;;13.20;98.00;;;;;;5033659;28;20455;-62
2022/11/16 11:46:05;;;;;;;2.00;1.50;;;13.40;98.00;;;;;;5044272;28;20557;-62
2022/11/16 11:48:38;;;;;;;2.70;1.83;;;13.70;98.00;;;;;;5033054;28;20514;-61
2022/11/16 11:51:12;;;;;;;1.83;1.83;;;13.70;98.00;;;;;;5028297;28;20459;-62
2022/11/16 11:53:49;;;;;;;3.20;1.90;;;13.70;98.00;;;;;;5036975;28;20559;-62
2022/11/16 11:56:17;;;;;;;4.00;1.93;;;13.60;98.00;;;;;;5048960;28;20502;-62
2022/11/16 11:58:46;;;;;;;2.63;1.70;;;13.50;98.00;;;;;;5030823;28;20469;-62
2022/11/16 12:01:37;;;;;;;3.90;2.10;;;13.50;98.00;;;;;;5030543;28;20512;-62
2022/11/16 12:04:50;;;;;;;1.93;1.70;;;13.50;98.00;;;;;;5031512;28;20533;-62
2022/11/16 12:07:28;;;;;;;3.53;2.10;;;13.50;98.00;;;;;;5028826;28;20461;-62
2022/11/16 12:10:03;;;;;;;3.10;1.97;;;13.30;98.00;;;;;;5039522;28;20466;-62
2022/11/16 12:12:44;;;;;;;2.60;1.63;;;13.60;98.00;;;;;;5030574;28;20539;-63
2022/11/16 12:15:36;;;;;;;2.57;1.73;;;14.30;98.00;;;;;;5035411;28;20475;-62
2022/11/16 12:18:17;;;;;;;2.17;1.47;;;14.80;98.00;;;;;;5043307;28;20514;-62
2022/11/16 12:20:53;;;;;;;2.53;1.60;;;15.50;98.00;;;;;;5038625;28;20461;-65
2022/11/16 12:23:43;;;;;;;2.53;1.63;;;15.80;98.00;;;;;;5033745;28;20465;-64
2022/11/16 12:26:20;;;;;;;1.70;1.40;;;15.70;98.00;;;;;;5031553;28;20500;-62
2022/11/16 12:29:00;;;;;;;2.37;1.73;;;15.50;98.00;;;;;;5043429;28;20458;-61
2022/11/16 12:31:59;;;;;;;1.60;1.47;;;15.40;98.00;;;;;;5048647;28;20523;-60
2022/11/16 12:34:41;;;;;;;1.87;1.27;;;15.00;98.00;;;;;;4995732;28;20841;-61
2022/11/16 12:37:15;;;;;;;2.50;1.93;;;14.80;98.00;;;;;;5032153;28;20463;-61
2022/11/16 12:39:58;;;;;;;3.23;1.83;;;14.60;98.00;;;;;;5033430;28;20483;-62
2022/11/16 12:42:36;;;;;;;3.00;2.00;;;14.40;98.00;;;;;;5041943;28;20728;-61
2022/11/16 12:45:17;;;;;;;2.33;1.77;;;14.30;98.00;;;;;;5051013;28;20495;-61
2022/11/16 12:48:10;;;;;;;2.20;1.40;;;14.50;98.00;;;;;;5042161;28;20478;-59
2022/11/16 12:50:50;;;;;;;4.20;1.80;;;15.20;98.00;;;;;;5037855;28;20841;-58
2022/11/16 12:53:42;;;;;;;2.90;1.90;;;15.20;98.00;;;;;;5042322;28;20465;-60
2022/11/16 12:56:23;;;;;;;4.63;1.97;;;15.10;98.00;;;;;;5035586;28;20466;-61
2022/11/16 12:59:10;;;;;;;6.33;1.70;;;15.40;98.00;;;;;;5036251;28;20855;-66
2022/11/16 13:01:42;;;;;;;2.53;1.50;;;15.40;98.00;;;;;;5031464;28;20465;-65
2022/11/16 13:04:16;;;;;;;3.30;1.80;;;15.30;98.00;;;;;;5040400;28;20519;-65
2022/11/16 13:06:47;;;;;;;1.90;1.47;;;15.40;98.00;;;;;;5041247;28;20531;-65
2022/11/16 13:09:19;;;;;;;1.30;1.20;;;15.60;98.00;;;;;;5041562;28;20466;-65
2022/11/16 13:12:01;;;;;;;2.30;1.70;;;16.00;98.00;;;;;;5039837;28;20837;-66
2022/11/16 13:14:33;;;;;;;2.30;1.63;;;16.30;98.00;;;;;;5026282;28;20497;-63
2022/11/16 13:17:03;;;;;;;1.90;1.47;;;16.30;98.00;;;;;;5015927;28;20957;-62
2022/11/16 13:19:32;;;;;;;3.00;1.93;;;16.30;98.00;;;;;;5033662;28;20948;-63
2022/11/16 13:22:05;;;;;;;2.23;1.67;;;16.40;98.00;;;;;;5033328;28;20531;-62
2022/11/16 13:24:48;;;;;;;1.77;1.53;;;16.50;98.00;;;;;;5032955;28;20463;-62
2022/11/16 13:27:31;;;;;;;1.70;1.50;;;16.40;98.00;;;;;;5033410;28;20473;-62
2022/11/16 13:30:03;;;;;;;4.20;2.30;;;16.30;98.00;;;;;;5033357;28;20462;-62
2022/11/16 13:32:43;;;;;;;2.43;1.60;;;16.20;98.00;;;;;;5033621;28;20458;-63
2022/11/16 13:35:19;;;;;;;2.87;1.80;;;16.30;98.00;;;;;;5033445;28;20450;-62
2022/11/16 13:37:48;;;;;;;5.47;1.60;;;16.10;98.00;;;;;;5033123;28;20465;-62
2022/11/16 13:40:36;;;;;;;1.70;1.40;;;16.00;98.00;;;;;;5033166;28;20504;-63
2022/11/16 13:43:25;;;;;;;1.90;1.60;;;15.90;98.00;;;;;;5025468;28;20458;-62
2022/11/16 13:45:57;;;;;;;2.83;1.50;;;15.70;98.00;;;;;;5033304;28;20485;-62
2022/11/16 13:48:29;;;;;;;1.77;1.50;;;15.50;98.00;;;;;;5033393;28;20469;-62